Time;durP1;ratioP1;P1;durP2;ratioP2;P2;SDS_P1;SDS_P2;PMS_P1;PMS_P2;Temp;Humidity;BMP_temperature;BMP_pressure;BME280_temperature;BME280_humidity;BME280_pressure;Samples;Min_cycle;Max_cycle;Signal;HPM_P1;HPM_P2
2023/12/16 00:02:05;;;;;;;3.10;1.50;;;;;;;-0.97;100.00;102032.49;104469;1257;72725;-56
2023/12/16 00:04:36;;;;;;;4.70;1.70;;;;;;;-0.95;100.00;102035.23;105547;1257;59566;-55
2023/12/16 00:07:04;;;;;;;3.30;2.40;;;;;;;-0.94;100.00;102038.95;108759;1254;59059;-56
2023/12/16 00:09:31;;;;;;;4.40;2.60;;;;;;;-0.96;100.00;102042.95;108811;1254;73966;-56
2023/12/16 00:11:59;;;;;;;2.90;2.30;;;;;;;-0.97;100.00;102047.15;108803;1254;66907;-56
2023/12/16 00:14:27;;;;;;;5.20;2.90;;;;;;;-0.97;100.00;102044.47;108789;1256;71453;-56
2023/12/16 00:16:54;;;;;;;6.40;3.00;;;;;;;-0.98;100.00;102039.85;106732;1258;60617;-56
2023/12/16 00:19:22;;;;;;;4.30;2.00;;;;;;;-1.01;100.00;102033.60;104806;1254;61530;-56
2023/12/16 00:21:49;;;;;;;4.40;2.30;;;;;;;-1.01;100.00;102030.58;107132;1254;74346;-56
2023/12/16 00:24:17;;;;;;;3.90;2.00;;;;;;;-1.02;100.00;102034.26;104744;1259;67281;-55
2023/12/16 00:26:44;;;;;;;3.20;1.50;;;;;;;-1.01;100.00;102032.67;104635;1254;71405;-56
2023/12/16 00:29:12;;;;;;;6.00;2.10;;;;;;;-1.00;100.00;102038.89;104733;1260;60905;-56
2023/12/16 00:31:43;;;;;;;3.50;1.80;;;;;;;-0.97;100.00;102043.80;104910;1257;61265;-56
2023/12/16 00:34:11;;;;;;;4.60;2.10;;;;;;;-0.93;100.00;102040.76;105368;1254;74295;-55
2023/12/16 00:36:41;;;;;;;6.10;3.30;;;;;;;-0.89;100.00;102043.16;105681;1255;65799;-56
2023/12/16 00:39:09;;;;;;;6.70;3.20;;;;;;;-0.88;100.00;102048.86;105002;1256;70455;-55
2023/12/16 00:41:37;;;;;;;5.00;3.20;;;;;;;-0.87;100.00;102048.38;104921;1254;60486;-55
2023/12/16 00:44:05;;;;;;;5.80;2.90;;;;;;;-0.87;100.00;102048.18;104888;1259;60616;-56
2023/12/16 00:46:32;;;;;;;4.70;2.30;;;;;;;-0.88;100.00;102053.62;104750;1259;74556;-57
2023/12/16 00:49:00;;;;;;;4.20;2.10;;;;;;;-0.89;100.00;102047.95;104719;1257;66420;-56
2023/12/16 00:51:28;;;;;;;3.00;1.80;;;;;;;-0.91;100.00;102046.82;104847;1259;72458;-56
2023/12/16 00:53:55;;;;;;;2.90;1.70;;;;;;;-0.93;100.00;102043.21;104621;1254;60960;-55
2023/12/16 00:56:22;;;;;;;3.70;1.40;;;;;;;-0.94;100.00;102037.35;104906;1259;60928;-55
2023/12/16 00:58:50;;;;;;;3.50;1.50;;;;;;;-0.96;100.00;102036.26;104834;1254;72649;-55
2023/12/16 01:01:18;;;;;;;4.30;1.60;;;;;;;-0.95;100.00;102038.04;104816;1257;66044;-56
2023/12/16 01:03:45;;;;;;;3.60;1.40;;;;;;;-0.94;100.00;102034.19;105341;1257;72713;-56
2023/12/16 01:06:13;;;;;;;2.80;1.70;;;;;;;-0.92;100.00;102041.65;104770;1254;63290;-56
2023/12/16 01:08:42;;;;;;;3.60;1.50;;;;;;;-0.89;100.00;102040.72;104693;1254;60460;-55
2023/12/16 01:11:11;;;;;;;2.80;1.60;;;;;;;-0.86;100.00;102043.66;104794;1255;72958;-56
2023/12/16 01:13:39;;;;;;;3.60;2.10;;;;;;;-0.83;100.00;102047.96;104754;1256;65701;-56
2023/12/16 01:16:07;;;;;;;3.00;2.00;;;;;;;-0.81;100.00;102051.39;104664;1254;72627;-56
2023/12/16 01:18:35;;;;;;;4.40;2.20;;;;;;;-0.80;100.00;102039.80;104916;1261;60499;-55
2023/12/16 01:21:05;;;;;;;4.00;2.50;;;;;;;-0.79;100.00;102043.88;104916;1258;60450;-56
2023/12/16 01:23:32;;;;;;;4.70;2.40;;;;;;;-0.78;100.00;102043.73;106086;1255;73750;-56
2023/12/16 01:26:00;;;;;;;4.10;2.10;;;;;;;-0.78;100.00;102049.20;104667;1261;66625;-56
2023/12/16 01:28:27;;;;;;;2.80;2.00;;;;;;;-0.80;100.00;102050.38;104625;1257;71430;-56
2023/12/16 01:30:55;;;;;;;2.70;1.30;;;;;;;-0.82;100.00;102046.61;105024;1259;60498;-56
2023/12/16 01:33:22;;;;;;;1.60;1.10;;;;;;;-0.82;100.00;102048.02;104585;1254;59463;-56
2023/12/16 01:35:50;;;;;;;1.80;1.10;;;;;;;-0.82;100.00;102044.13;104621;1260;74328;-56
2023/12/16 01:38:17;;;;;;;1.40;1.00;;;;;;;-0.83;100.00;102044.98;104662;1256;65888;-56
2023/12/16 01:40:45;;;;;;;1.30;0.80;;;;;;;-0.81;100.00;102043.79;104812;1259;72693;-56
2023/12/16 01:43:12;;;;;;;3.10;1.00;;;;;;;-0.80;100.00;102048.98;105288;1254;60649;-56
2023/12/16 01:45:40;;;;;;;1.40;0.90;;;;;;;-0.78;100.00;102045.16;104666;1260;61220;-57
2023/12/16 01:48:10;;;;;;;4.00;1.10;;;;;;;-0.75;100.00;102051.57;104863;1257;73869;-56
2023/12/16 01:50:37;;;;;;;2.00;1.40;;;;;;;-0.73;100.00;102048.81;105272;1255;65165;-56
2023/12/16 01:53:05;;;;;;;3.90;1.40;;;;;;;-0.73;100.00;102049.71;104602;1256;73626;-56
2023/12/16 01:55:32;;;;;;;2.30;1.20;;;;;;;-0.73;100.00;102043.89;104710;1254;60357;-55
2023/12/16 01:58:00;;;;;;;1.30;1.00;;;;;;;-0.74;100.00;102038.20;105125;1258;60404;-55
2023/12/16 02:00:28;;;;;;;2.30;1.10;;;;;;;-0.76;100.00;102045.90;104652;1257;74484;-55
2023/12/16 02:02:55;;;;;;;1.70;1.40;;;;;;;-0.77;100.00;102046.77;104734;1260;67403;-56
2023/12/16 02:05:23;;;;;;;2.90;1.50;;;;;;;-0.77;100.00;102045.00;104680;1256;72728;-55
2023/12/16 02:07:50;;;;;;;3.00;1.20;;;;;;;-0.78;100.00;102040.41;104557;1256;60951;-56
2023/12/16 02:10:18;;;;;;;2.50;1.20;;;;;;;-0.77;100.00;102051.71;104690;1260;60433;-56
2023/12/16 02:12:46;;;;;;;1.80;1.00;;;;;;;-0.76;100.00;102057.02;105245;1257;74269;-56
2023/12/16 02:15:13;;;;;;;1.80;1.00;;;;;;;-0.75;100.00;102058.80;104564;1256;65839;-53
2023/12/16 02:17:41;;;;;;;1.70;1.10;;;;;;;-0.74;100.00;102060.08;104649;1260;72763;-52
2023/12/16 02:20:10;;;;;;;2.00;1.00;;;;;;;-0.72;100.00;102064.39;104953;1257;60486;-55
2023/12/16 02:22:37;;;;;;;2.60;1.10;;;;;;;-0.70;100.00;102063.77;104945;1261;60448;-53
2023/12/16 02:25:07;;;;;;;3.80;1.10;;;;;;;-0.68;100.00;102062.95;104858;1256;72628;-53
2023/12/16 02:27:34;;;;;;;2.80;1.40;;;;;;;-0.64;100.00;102063.77;108413;1258;66769;-55
2023/12/16 02:30:03;;;;;;;1.30;1.00;;;;;;;-0.62;100.00;102069.34;104714;1257;72759;-54
2023/12/16 02:32:31;;;;;;;1.70;1.00;;;;;;;-0.61;100.00;102065.13;107210;1257;60345;-54
2023/12/16 02:34:58;;;;;;;2.30;1.40;;;;;;;-0.61;100.00;102073.77;104542;1257;60630;-53
2023/12/16 02:37:26;;;;;;;3.00;1.80;;;;;;;-0.61;100.00;102069.35;104676;1256;73920;-53
2023/12/16 02:39:53;;;;;;;3.00;1.90;;;;;;;-0.63;100.00;102075.80;104741;1257;65740;-52
2023/12/16 02:42:21;;;;;;;3.50;2.00;;;;;;;-0.64;100.00;102073.48;104570;1256;71580;-54
2023/12/16 02:44:48;;;;;;;2.50;1.60;;;;;;;-0.65;100.00;102076.77;104792;1258;60682;-53
2023/12/16 02:47:16;;;;;;;3.90;2.70;;;;;;;-0.66;100.00;102075.52;104821;1259;60351;-54
2023/12/16 02:49:44;;;;;;;4.50;2.80;;;;;;;-0.67;100.00;102074.60;104668;1257;72564;-55
2023/12/16 02:52:12;;;;;;;4.00;2.10;;;;;;;-0.65;100.00;102073.77;105816;1259;67366;-55
2023/12/16 02:54:39;;;;;;;5.30;3.10;;;;;;;-0.62;100.00;102073.02;104885;1257;71131;-55
2023/12/16 02:57:06;;;;;;;6.90;4.10;;;;;;;-0.59;100.00;102079.13;104807;1257;60965;-56
2023/12/16 02:59:34;;;;;;;4.60;3.30;;;;;;;-0.56;100.00;102085.39;104923;1254;60485;-56
2023/12/16 03:02:01;;;;;;;8.60;3.60;;;;;;;-0.53;100.00;102092.02;104894;1259;72656;-56
2023/12/16 03:04:29;;;;;;;5.40;3.80;;;;;;;-0.52;100.00;102095.77;108197;1256;65906;-55
2023/12/16 03:06:56;;;;;;;4.60;3.90;;;;;;;-0.51;100.00;102096.66;104687;1261;72457;-55
2023/12/16 03:09:24;;;;;;;7.30;4.60;;;;;;;-0.51;100.00;102097.02;104900;1257;60421;-56
2023/12/16 03:11:51;;;;;;;8.10;5.30;;;;;;;-0.52;100.00;102097.90;104966;1257;60524;-56
2023/12/16 03:14:19;;;;;;;6.20;5.20;;;;;;;-0.51;100.00;102100.71;104719;1259;72851;-55
2023/12/16 03:16:47;;;;;;;7.20;5.20;;;;;;;-0.50;100.00;102098.99;104747;1256;65728;-55
2023/12/16 03:19:14;;;;;;;6.70;4.60;;;;;;;-0.49;100.00;102096.03;104943;1258;73180;-56
2023/12/16 03:21:42;;;;;;;7.70;5.30;;;;;;;-0.47;100.00;102100.66;108892;1254;59909;-56
2023/12/16 03:24:09;;;;;;;7.50;4.60;;;;;;;-0.45;100.00;102107.98;105041;1255;60693;-56
2023/12/16 03:26:40;;;;;;;6.50;5.00;;;;;;;-0.44;100.00;102109.27;104685;1260;73695;-56
2023/12/16 03:29:08;;;;;;;6.80;5.30;;;;;;;-0.41;100.00;102111.45;104736;1257;66879;-55
2023/12/16 03:31:35;;;;;;;8.10;6.00;;;;;;;-0.39;100.00;102123.00;104655;1257;71862;-56
2023/12/16 03:34:03;;;;;;;9.60;6.40;;;;;;;-0.36;100.00;102126.11;108755;1254;58475;-56
2023/12/16 03:36:30;;;;;;;9.50;6.00;;;;;;;-0.35;100.00;102125.09;108917;1254;58825;-56
2023/12/16 03:38:58;;;;;;;10.80;6.80;;;;;;;-0.36;100.00;102122.93;108784;1254;73816;-56
2023/12/16 03:41:25;;;;;;;10.30;6.50;;;;;;;-0.37;100.00;102119.70;108663;1259;67143;-56
2023/12/16 03:43:53;;;;;;;8.90;6.60;;;;;;;-0.39;100.00;102118.77;104603;1256;71918;-55
2023/12/16 03:46:21;;;;;;;11.00;6.10;;;;;;;-0.41;100.00;102126.30;104716;1257;60558;-55
2023/12/16 03:48:49;;;;;;;10.50;7.00;;;;;;;-0.41;100.00;102130.33;105402;1258;60307;-56
2023/12/16 03:51:17;;;;;;;9.10;6.40;;;;;;;-0.41;100.00;102130.17;107227;1254;73846;-55
2023/12/16 03:53:45;;;;;;;8.20;5.70;;;;;;;-0.39;100.00;102131.48;104741;1257;65656;-55
2023/12/16 03:56:12;;;;;;;8.20;5.60;;;;;;;-0.35;100.00;102135.14;104659;1256;72648;-57
2023/12/16 03:58:40;;;;;;;9.00;6.50;;;;;;;-0.31;100.00;102137.36;104617;1257;60488;-56
2023/12/16 04:01:13;;;;;;;9.00;6.70;;;;;;;-0.29;100.00;102139.92;104663;1256;63021;-55
2023/12/16 04:03:41;;;;;;;10.20;7.90;;;;;;;-0.27;100.00;102143.55;105512;1257;76021;-56
2023/12/16 04:06:12;;;;;;;11.40;8.10;;;;;;;-0.25;100.00;102142.35;104775;1260;65648;-56
2023/12/16 04:08:40;;;;;;;13.50;9.60;;;;;;;-0.25;100.00;102146.95;104658;1257;71459;-56
2023/12/16 04:11:07;;;;;;;13.70;9.50;;;;;;;-0.25;100.00;102147.29;104815;1259;62010;-56
2023/12/16 04:13:35;;;;;;;14.00;8.90;;;;;;;-0.27;100.00;102145.13;104623;1262;136834;-56
2023/12/16 04:16:51;;;;;;;11.40;8.00;;;;;;;-0.29;100.00;102246.50;101987;1294;601317;-55
2023/12/16 04:19:19;;;;;;;12.30;8.50;;;;;;;-0.29;100.00;102291.16;104119;1268;61833;-55
2023/12/16 04:21:46;;;;;;;16.00;9.10;;;;;;;-0.26;100.00;102280.13;104350;1266;59244;-55
2023/12/16 04:24:14;;;;;;;14.80;10.40;;;;;;;-0.23;100.00;102276.16;104061;1270;72436;-55
2023/12/16 04:26:41;;;;;;;12.30;8.30;;;;;;;-0.21;100.00;102270.79;103931;1270;67055;-55
2023/12/16 04:29:08;;;;;;;13.80;9.40;;;;;;;-0.18;100.00;102270.55;104492;1263;73124;-56
2023/12/16 04:31:36;;;;;;;12.80;9.10;;;;;;;-0.17;100.00;102262.80;104600;1257;94523;-56
2023/12/16 04:34:03;;;;;;;16.00;9.90;;;;;;;-0.16;100.00;102267.09;105282;1257;59409;-56
2023/12/16 04:36:31;;;;;;;16.80;10.80;;;;;;;-0.16;100.00;102260.02;104893;1257;70530;-56
2023/12/16 04:38:59;;;;;;;14.30;10.20;;;;;;;-0.16;100.00;102250.29;104624;1260;66859;-56
2023/12/16 04:41:27;;;;;;;15.40;9.80;;;;;;;-0.18;100.00;102245.85;104779;1261;72648;-56
2023/12/16 04:43:54;;;;;;;13.50;8.90;;;;;;;-0.19;100.00;102242.10;105052;1254;59958;-56
2023/12/16 04:46:22;;;;;;;12.20;9.00;;;;;;;-0.20;100.00;102237.45;104826;1253;60674;-56
2023/12/16 04:48:49;;;;;;;10.10;7.90;;;;;;;-0.21;100.00;102226.30;105285;1254;76109;-56
2023/12/16 04:51:17;;;;;;;10.70;7.90;;;;;;;-0.20;100.00;102228.65;105459;1256;67752;-56
2023/12/16 04:53:45;;;;;;;9.30;7.10;;;;;;;-0.18;100.00;102225.36;104558;1254;72862;-56
2023/12/16 04:56:12;;;;;;;14.80;9.60;;;;;;;-0.17;100.00;102225.77;104848;1256;59640;-56
2023/12/16 04:58:39;;;;;;;12.20;9.20;;;;;;;-0.13;100.00;102227.12;105023;1254;63704;-55
2023/12/16 05:01:07;;;;;;;13.60;9.60;;;;;;;-0.12;100.00;102228.92;104600;1260;71776;-55
2023/12/16 05:03:34;;;;;;;13.60;9.20;;;;;;;-0.12;100.00;102224.34;105555;1254;67030;-54
2023/12/16 05:06:02;;;;;;;15.20;9.90;;;;;;;-0.14;100.00;102223.75;104690;1260;71180;-56
2023/12/16 05:08:30;;;;;;;12.30;9.10;;;;;;;-0.15;100.00;102224.04;104715;1257;59962;-56
2023/12/16 05:10:57;;;;;;;14.10;9.10;;;;;;;-0.16;100.00;102220.47;104653;1254;59850;-56
2023/12/16 05:13:25;;;;;;;14.90;9.70;;;;;;;-0.18;100.00;102219.91;104814;1257;73400;-56
2023/12/16 05:15:52;;;;;;;13.20;8.40;;;;;;;-0.19;100.00;102213.34;104718;1254;66906;-56
2023/12/16 05:18:19;;;;;;;13.20;8.00;;;;;;;-0.19;100.00;102217.05;104857;1259;72708;-55
2023/12/16 05:20:48;;;;;;;11.00;7.30;;;;;;;-0.18;100.00;102218.31;105126;1257;59718;-55
2023/12/16 05:23:15;;;;;;;12.00;7.90;;;;;;;-0.17;100.00;102222.75;104609;1257;59686;-55
2023/12/16 05:25:42;;;;;;;13.80;6.90;;;;;;;-0.16;100.00;102223.66;104596;1257;72269;-55
2023/12/16 05:28:10;;;;;;;11.40;7.70;;;;;;;-0.13;100.00;102219.70;104583;1257;66600;-56
2023/12/16 05:30:38;;;;;;;10.70;8.40;;;;;;;-0.11;100.00;102216.95;104548;1254;71078;-56
2023/12/16 05:33:05;;;;;;;13.90;9.90;;;;;;;-0.10;100.00;102221.42;104794;1257;59752;-56
2023/12/16 05:35:33;;;;;;;12.90;9.00;;;;;;;-0.10;100.00;102227.05;104770;1260;59815;-56
2023/12/16 05:38:00;;;;;;;12.40;8.80;;;;;;;-0.10;100.00;102232.00;104801;1257;73980;-56
2023/12/16 05:40:28;;;;;;;14.20;9.80;;;;;;;-0.11;100.00;102236.38;104632;1254;67097;-55
2023/12/16 05:42:56;;;;;;;12.40;9.00;;;;;;;-0.13;100.00;102233.67;104477;1257;72751;-56
2023/12/16 05:45:23;;;;;;;13.40;9.30;;;;;;;-0.14;100.00;102233.96;104597;1257;60026;-56
2023/12/16 05:47:51;;;;;;;13.60;8.50;;;;;;;-0.16;100.00;102237.23;104604;1254;60221;-56
2023/12/16 05:50:18;;;;;;;11.70;7.80;;;;;;;-0.16;100.00;102241.83;104719;1255;72554;-56
2023/12/16 05:52:46;;;;;;;11.00;7.60;;;;;;;-0.16;100.00;102238.47;104540;1257;65977;-56
2023/12/16 05:55:13;;;;;;;11.30;8.20;;;;;;;-0.15;100.00;102242.04;104605;1257;73154;-56
2023/12/16 05:57:41;;;;;;;14.10;8.50;;;;;;;-0.13;100.00;102248.12;104715;1257;59679;-56
2023/12/16 06:00:09;;;;;;;11.00;8.50;;;;;;;-0.10;100.00;102252.65;108720;1254;58825;-57
2023/12/16 06:02:36;;;;;;;13.80;9.40;;;;;;;-0.09;100.00;102251.45;108780;1256;71836;-57
2023/12/16 06:05:04;;;;;;;16.70;10.30;;;;;;;-0.07;100.00;102252.04;108811;1257;65909;-57
2023/12/16 06:07:32;;;;;;;12.20;9.50;;;;;;;-0.06;100.00;102257.21;108898;1256;72741;-57
2023/12/16 06:09:59;;;;;;;13.60;8.40;;;;;;;-0.05;100.00;102257.58;108683;1256;58773;-57
2023/12/16 06:12:28;;;;;;;11.10;8.20;;;;;;;-0.05;100.00;102254.39;106109;1259;59212;-56
2023/12/16 06:14:56;;;;;;;17.30;10.50;;;;;;;-0.05;100.00;102251.94;104512;1260;73258;-56
2023/12/16 06:17:23;;;;;;;15.00;8.70;;;;;;;-0.05;100.00;102254.75;104718;1254;66916;-56
2023/12/16 06:19:51;;;;;;;12.40;8.40;;;;;;;-0.05;100.00;102254.94;104503;1257;71404;-56
2023/12/16 06:22:18;;;;;;;15.80;10.60;;;;;;;-0.04;100.00;102257.10;104757;1260;59739;-56
2023/12/16 06:24:46;;;;;;;14.40;8.90;;;;;;;-0.01;100.00;102260.55;104677;1254;59688;-56
2023/12/16 06:27:13;;;;;;;11.50;8.30;;;;;;;0.01;100.00;102267.50;104703;1255;73607;-56
2023/12/16 06:29:41;;;;;;;13.90;8.90;;;;;;;0.05;100.00;102272.76;104686;1257;66245;-56
2023/12/16 06:32:08;;;;;;;13.10;8.20;;;;;;;0.09;100.00;102277.65;104453;1256;73132;-56
2023/12/16 06:34:36;;;;;;;13.80;9.10;;;;;;;0.11;100.00;102282.85;104603;1259;59778;-56
2023/12/16 06:37:03;;;;;;;11.40;8.50;;;;;;;0.11;100.00;102284.44;108876;1256;58798;-56
2023/12/16 06:39:31;;;;;;;13.70;9.40;;;;;;;0.09;100.00;102282.95;108947;1254;72971;-56
2023/12/16 06:41:58;;;;;;;13.50;9.20;;;;;;;0.08;100.00;102286.46;107881;1256;66323;-56
2023/12/16 06:44:25;;;;;;;13.30;7.80;;;;;;;0.09;100.00;102289.65;104691;1256;71453;-56
2023/12/16 06:46:53;;;;;;;11.80;8.10;;;;;;;0.08;100.00;102288.05;104573;1257;59928;-56
2023/12/16 06:49:20;;;;;;;12.50;7.60;;;;;;;0.08;100.00;102282.92;104507;1257;59631;-57
2023/12/16 06:51:48;;;;;;;11.30;8.20;;;;;;;0.11;100.00;102281.95;104740;1254;71816;-57
2023/12/16 06:54:16;;;;;;;12.90;9.50;;;;;;;0.13;100.00;102282.92;104678;1254;67134;-56
2023/12/16 06:56:43;;;;;;;13.20;9.20;;;;;;;0.16;100.00;102285.86;104410;1257;72702;-56
2023/12/16 06:59:11;;;;;;;14.60;8.60;;;;;;;0.18;100.00;102290.30;104382;1257;59621;-56
2023/12/16 07:01:39;;;;;;;11.60;8.60;;;;;;;0.19;100.00;102290.88;106667;1256;60086;-56
2023/12/16 07:04:06;;;;;;;12.00;8.70;;;;;;;0.19;100.00;102285.39;104396;1255;73648;-56
2023/12/16 07:06:35;;;;;;;10.10;8.10;;;;;;;0.18;100.00;102289.98;104502;1255;65679;-56
2023/12/16 07:09:02;;;;;;;15.20;8.50;;;;;;;0.20;100.00;102289.33;104427;1260;71233;-56
2023/12/16 07:11:30;;;;;;;12.30;7.80;;;;;;;0.21;100.00;102297.15;104471;1260;59910;-56
2023/12/16 07:13:57;;;;;;;15.30;9.10;;;;;;;0.22;100.00;102298.59;104698;1260;60943;-56
2023/12/16 07:16:24;;;;;;;10.60;8.00;;;;;;;0.24;100.00;102296.90;104542;1255;74351;-55
2023/12/16 07:18:52;;;;;;;9.40;7.40;;;;;;;0.27;100.00;102296.98;104607;1262;66155;-57
2023/12/16 07:21:19;;;;;;;13.70;8.90;;;;;;;0.30;100.00;102297.83;104589;1257;71231;-56
2023/12/16 07:23:47;;;;;;;13.00;8.50;;;;;;;0.34;100.00;102301.29;104672;1260;59723;-57
2023/12/16 07:26:14;;;;;;;16.00;9.40;;;;;;;0.35;100.00;102297.80;104616;1258;60111;-56
2023/12/16 07:28:42;;;;;;;14.70;9.80;;;;;;;0.37;100.00;102301.75;104631;1254;72116;-57
2023/12/16 07:31:09;;;;;;;14.70;9.80;;;;;;;0.39;100.00;102303.58;104842;1255;65573;-56
2023/12/16 07:33:37;;;;;;;16.00;9.20;;;;;;;0.40;100.00;102307.48;105103;1257;70810;-56
2023/12/16 07:36:05;;;;;;;14.70;9.10;;;;;;;0.40;100.00;102312.98;104600;1260;59644;-56
2023/12/16 07:38:33;;;;;;;11.20;7.70;;;;;;;0.40;100.00;102317.23;104824;1259;59641;-55
2023/12/16 07:41:00;;;;;;;11.90;8.50;;;;;;;0.41;100.00;102317.59;105093;1259;72833;-56
2023/12/16 07:43:28;;;;;;;11.90;9.10;;;;;;;0.43;100.00;102322.08;105039;1254;67457;-55
2023/12/16 07:45:56;;;;;;;15.00;9.90;;;;;;;0.45;100.00;102327.98;105134;1257;71492;-56
2023/12/16 07:48:24;;;;;;;13.50;9.90;;;;;;;0.49;100.00;102330.06;105320;1255;59644;-55
2023/12/16 07:50:53;;;;;;;15.10;11.20;;;;;;;0.52;100.00;102327.66;105078;1260;59360;-56
2023/12/16 07:53:21;;;;;;;16.90;11.40;;;;;;;0.54;100.00;102336.08;105234;1256;73470;-56
2023/12/16 07:55:49;;;;;;;15.90;10.40;;;;;;;0.55;100.00;102331.34;104788;1260;67597;-56
2023/12/16 07:58:16;;;;;;;17.20;10.80;;;;;;;0.56;100.00;102336.84;104741;1254;73535;-56
2023/12/16 08:00:44;;;;;;;17.20;10.80;;;;;;;0.56;100.00;102334.01;104883;1263;59759;-56
2023/12/16 08:03:11;;;;;;;15.20;9.70;;;;;;;0.56;100.00;102335.96;105069;1260;59618;-56
2023/12/16 08:05:40;;;;;;;14.20;9.10;;;;;;;0.58;100.00;102337.45;104907;1260;73440;-56
2023/12/16 08:08:08;;;;;;;15.20;9.70;;;;;;;0.61;100.00;102336.64;105190;1263;66284;-56
2023/12/16 08:10:35;;;;;;;13.90;9.40;;;;;;;0.66;100.00;102337.19;104866;1257;71913;-56
2023/12/16 08:13:03;;;;;;;16.60;10.40;;;;;;;0.73;100.00;102341.47;104729;1254;59237;-56
2023/12/16 08:15:31;;;;;;;17.90;11.80;;;;;;;0.79;100.00;102340.92;106156;1257;60394;-52
2023/12/16 08:17:58;;;;;;;17.30;11.00;;;;;;;0.83;100.00;102344.09;105033;1260;73107;-55
2023/12/16 08:20:26;;;;;;;17.00;11.40;;;;;;;0.85;100.00;102340.27;105131;1255;66844;-56
2023/12/16 08:22:53;;;;;;;15.70;10.90;;;;;;;0.88;100.00;102343.00;104983;1260;73226;-56
2023/12/16 08:25:21;;;;;;;16.80;12.30;;;;;;;0.91;100.00;102341.01;104807;1254;60801;-57
2023/12/16 08:27:48;;;;;;;14.80;10.20;;;;;;;0.96;100.00;102329.30;104872;1254;61223;-56
2023/12/16 08:30:16;;;;;;;17.30;11.60;;;;;;;1.01;100.00;102332.66;105147;1260;73830;-55
2023/12/16 08:32:43;;;;;;;15.80;10.80;;;;;;;1.06;100.00;102339.19;104801;1260;65758;-56
2023/12/16 08:35:11;;;;;;;15.20;10.20;;;;;;;1.13;100.00;102343.99;104712;1257;71424;-56
2023/12/16 08:37:39;;;;;;;15.30;9.80;;;;;;;1.20;100.00;102347.91;104690;1259;60552;-57
2023/12/16 08:40:09;;;;;;;14.70;10.90;;;;;;;1.25;100.00;102350.58;104709;1257;60527;-56
2023/12/16 08:42:38;;;;;;;14.90;11.00;;;;;;;1.28;100.00;102350.30;104881;1257;71647;-57
2023/12/16 08:45:06;;;;;;;19.50;12.40;;;;;;;1.32;100.00;102350.78;104783;1256;65993;-56
2023/12/16 08:47:34;;;;;;;17.40;12.60;;;;;;;1.36;100.00;102350.02;105072;1261;72671;-56
2023/12/16 08:50:03;;;;;;;18.00;13.70;;;;;;;1.37;100.00;102349.48;104864;1257;60541;-57
2023/12/16 08:52:34;;;;;;;17.40;11.30;;;;;;;1.36;100.00;102351.80;106895;1259;60072;-57
2023/12/16 08:55:03;;;;;;;17.00;11.50;;;;;;;1.35;100.00;102343.98;106363;1257;73882;-57
2023/12/16 08:57:31;;;;;;;13.30;10.00;;;;;;;1.37;100.00;102335.51;104767;1260;67315;-57
2023/12/16 08:59:58;;;;;;;15.40;11.50;;;;;;;1.37;100.00;102338.52;104621;1257;73408;-57
2023/12/16 09:02:26;;;;;;;15.90;10.40;;;;;;;1.38;100.00;102343.00;107286;1257;60561;-56
2023/12/16 09:04:54;;;;;;;17.70;12.10;;;;;;;1.40;100.00;102345.72;104607;1260;60572;-57
2023/12/16 09:09:24;;;;;;;16.70;11.60;;;;;;;1.41;100.00;102431.55;101434;1290;601647;-56
2023/12/16 09:11:52;;;;;;;19.30;12.10;;;;;;;1.42;100.00;102491.41;104015;1266;59257;-55
2023/12/16 09:14:19;;;;;;;15.30;10.80;;;;;;;1.44;100.00;102476.96;108362;1269;61036;-56
2023/12/16 09:16:47;;;;;;;20.60;12.50;;;;;;;1.45;100.00;102461.95;108351;1263;72324;-57
2023/12/16 09:19:15;;;;;;;14.20;9.40;;;;;;;1.49;100.00;102454.27;108337;1264;65809;-56
2023/12/16 09:21:42;;;;;;;15.00;9.90;;;;;;;1.52;100.00;102451.38;108304;1264;72728;-56
2023/12/16 09:24:10;;;;;;;11.90;8.80;;;;;;;1.57;100.00;102446.92;108420;1263;75759;-57
2023/12/16 09:26:37;;;;;;;14.00;10.20;;;;;;;1.63;100.00;102440.56;108524;1263;59999;-56
2023/12/16 09:29:05;;;;;;;15.60;11.40;;;;;;;1.69;100.00;102437.92;106961;1261;72310;-56
2023/12/16 09:31:33;;;;;;;16.30;12.20;;;;;;;1.73;100.00;102441.38;108369;1261;65764;-57
2023/12/16 09:34:01;;;;;;;17.00;11.50;;;;;;;1.77;100.00;102443.48;108441;1261;72670;-57
2023/12/16 09:36:29;;;;;;;15.70;11.00;;;;;;;1.77;100.00;102438.51;108583;1261;57961;-56
2023/12/16 09:39:00;;;;;;;17.80;13.10;;;;;;;1.75;100.00;102431.70;108404;1261;57973;-56
2023/12/16 09:41:29;;;;;;;19.90;12.60;;;;;;;1.72;100.00;102422.42;108481;1261;73431;-56
2023/12/16 09:43:58;;;;;;;17.70;11.70;;;;;;;1.72;100.00;102421.17;105169;1267;67705;-56
2023/12/16 09:46:30;;;;;;;18.10;10.80;;;;;;;1.70;100.00;102416.70;104366;1267;72770;-56
2023/12/16 09:48:59;;;;;;;18.00;10.80;;;;;;;1.71;100.00;102417.61;107071;1261;59139;-55
2023/12/16 09:51:26;;;;;;;16.50;11.40;;;;;;;1.74;100.00;102417.34;104419;1263;59628;-55
2023/12/16 09:53:54;;;;;;;15.80;10.80;;;;;;;1.76;100.00;102415.47;104298;1264;73100;-54
2023/12/16 09:56:21;;;;;;;17.10;10.30;;;;;;;1.77;100.00;102417.29;104164;1261;65907;-55
2023/12/16 09:58:51;;;;;;;15.40;12.40;;;;;;;1.78;100.00;102416.43;104351;1261;71651;-56
2023/12/16 10:01:19;;;;;;;17.30;11.60;;;;;;;1.77;100.00;102413.02;104854;1260;60639;-55
2023/12/16 10:03:47;;;;;;;17.60;12.00;;;;;;;1.77;100.00;102410.02;106002;1257;59730;-55
2023/12/16 10:06:16;;;;;;;17.80;11.80;;;;;;;1.74;100.00;102403.00;104722;1260;71899;-54
2023/12/16 10:08:44;;;;;;;14.80;10.90;;;;;;;1.71;100.00;102395.48;105046;1261;65657;-54
2023/12/16 10:11:11;;;;;;;13.70;10.20;;;;;;;1.70;100.00;102391.92;104522;1262;72053;-55
2023/12/16 10:13:55;;;;;;;14.00;10.70;;;;;;;1.68;100.00;102388.15;104896;1257;59787;-55
2023/12/16 10:16:26;;;;;;;12.90;9.90;;;;;;;1.68;100.00;102393.81;105005;1257;59767;-55
2023/12/16 10:18:55;;;;;;;11.20;9.40;;;;;;;1.71;100.00;102380.43;104670;1256;73106;-56
2023/12/16 10:21:24;;;;;;;15.90;11.40;;;;;;;1.75;100.00;102373.84;105223;1254;65287;-55
2023/12/16 10:23:56;;;;;;;13.30;10.20;;;;;;;1.77;100.00;102371.61;104928;1261;71436;-55
2023/12/16 10:26:23;;;;;;;16.70;12.70;;;;;;;1.80;100.00;102371.65;104732;1256;59810;-55
2023/12/16 10:28:52;;;;;;;21.90;14.70;;;;;;;1.81;100.00;102368.52;104667;1256;59707;-54
2023/12/16 10:31:21;;;;;;;19.00;13.40;;;;;;;1.81;100.00;102368.68;104793;1260;72312;-55
2023/12/16 10:33:49;;;;;;;23.40;15.30;;;;;;;1.81;100.00;102372.21;104853;1257;66894;-55
2023/12/16 10:36:17;;;;;;;21.60;14.70;;;;;;;1.80;100.00;102365.29;105500;1258;71709;-56
2023/12/16 10:38:44;;;;;;;22.10;14.60;;;;;;;1.79;100.00;102360.30;104429;1260;61046;-54
2023/12/16 10:41:12;;;;;;;20.10;12.60;;;;;;;1.78;100.00;102352.33;104712;1257;60083;-55
2023/12/16 10:43:39;;;;;;;16.50;12.80;;;;;;;1.78;100.00;102350.91;105023;1256;72138;-56
2023/12/16 10:46:07;;;;;;;17.00;12.30;;;;;;;1.80;100.00;102349.36;104636;1257;65652;-55
2023/12/16 10:48:35;;;;;;;17.80;12.70;;;;;;;1.83;100.00;102350.36;104798;1258;71423;-55
2023/12/16 10:51:05;;;;;;;17.40;12.20;;;;;;;1.86;100.00;102347.79;104656;1260;59915;-56
2023/12/16 10:53:43;;;;;;;18.20;13.50;;;;;;;1.89;100.00;102349.98;104598;1256;60293;-56
2023/12/16 10:56:29;;;;;;;18.70;12.90;;;;;;;1.91;100.00;102356.42;104877;1259;71878;-56
2023/12/16 10:59:06;;;;;;;;;;;;;;;1.90;100.00;102361.16;104535;1255;65882;-55
2023/12/16 11:01:34;;;;;;;16.50;11.60;;;;;;;1.87;100.00;102354.36;106477;1254;71866;-54
2023/12/16 11:04:05;;;;;;;16.30;10.40;;;;;;;1.84;100.00;102345.41;104924;1259;60125;-55
2023/12/16 11:06:37;;;;;;;14.10;11.00;;;;;;;1.83;100.00;102347.52;105109;1260;59292;-56
2023/12/16 11:09:06;;;;;;;15.50;10.40;;;;;;;1.82;100.00;102347.49;104734;1257;71849;-54
2023/12/16 11:11:33;;;;;;;14.30;9.70;;;;;;;1.82;100.00;102336.85;104519;1262;65711;-56